Date,TemperatureHighF,TemperatureAvgF,TemperatureLowF,DewpointHighF,DewpointAvgF,DewpointLowF,HumidityHigh,HumidityAvg,HumidityLow,PressureMaxIn,PressureMinIn,WindSpeedMaxMPH,WindSpeedAvgMPH,GustSpeedMaxMPH,PrecipitationSumIn
2013-3-1,58.5,43.1,34.3,36.9,33.0,27.3,89,70,37,30.43,30.25,9,1,12,0.00
2013-3-2,51.6,39.6,31.5,35.1,30.6,27.3,86,71,45,30.25,30.05,8,0,14,0.00
2013-3-3,42.1,33.9,24.8,30.9,19.6,6.8,84,59,25,30.13,30.03,12,1,12,0.00
2013-3-4,52.0,32.5,16.0,23.2,17.8,11.7,84,58,32,30.16,29.92,9,0,10,0.00
2013-3-5,44.4,35.0,25.0,34.5,26.1,18.7,80,70,54,29.92,29.58,13,0,17,0.00
2013-3-6,35.1,31.6,26.1,31.6,27.0,21.2,90,83,71,29.90,29.44,20,1,20,0.16
2013-3-7,42.4,30.7,17.4,27.7,22.7,13.6,87,73,48,30.02,29.90,8,0,10,0.00
2013-3-8,41.0,31.1,22.8,29.5,24.4,18.7,88,77,53,30.16,29.94,10,1,12,0.00
2013-3-9,51.1,32.7,16.0,25.7,18.8,11.7,92,61,27,30.46,30.16,10,0,11,0.00
2013-3-10,57.6,38.3,22.5,34.7,25.3,17.8,83,63,26,30.46,30.32,11,1,16,0.00
2013-3-11,55.4,42.4,30.7,38.8,34.4,26.4,88,74,52,30.34,30.15,10,0,13,0.00
2013-3-12,62.8,44.1,29.8,39.0,29.5,21.7,91,62,24,30.19,30.07,12,1,14,0.00
2013-3-13,66.0,47.0,34.3,34.7,29.8,25.9,76,54,29,30.13,30.04,8,0,10,0.00
2013-3-14,64.8,44.2,29.8,36.5,28.5,24.3,83,58,26,30.13,29.99,12,1,16,0.00
2013-3-15,59.7,44.0,32.0,37.0,30.9,26.4,89,63,30,30.14,30.04,10,1,13,0.00
2013-3-16,48.7,37.2,30.4,32.9,29.0,24.6,87,73,47,30.07,29.86,19,2,27,0.00
2013-3-17,40.5,31.6,24.6,25.7,20.1,14.5,79,63,46,30.15,29.93,18,2,20,0.00
2013-3-18,50.7,35.8,25.2,26.1,19.3,9.7,85,56,24,30.19,30.09,8,0,10,0.00
2013-3-19,56.8,38.4,26.1,39.7,27.0,17.2,95,66,35,30.10,29.71,15,0,15,0.14
2013-3-20,43.3,37.4,27.1,39.6,32.2,20.8,92,82,64,29.99,29.54,17,2,23,0.17
2013-3-21,39.7,29.3,23.5,26.1,20.9,17.2,83,71,52,30.19,29.99,13,1,15,0.03
2013-3-22,39.4,28.4,21.0,20.1,17.2,13.1,85,65,40,30.29,30.16,12,1,16,0.01
2013-3-23,43.3,29.3,16.9,19.8,16.2,12.6,84,61,29,30.29,30.19,8,0,10,0.00
2013-3-24,46.4,33.9,21.6,27.3,21.4,16.0,80,61,43,30.23,30.06,10,1,13,0.00
2013-3-25,54.9,39.9,28.0,32.4,26.9,22.3,80,61,41,30.06,29.83,12,1,13,0.00
2013-3-26,51.1,39.6,32.0,37.4,33.2,28.6,89,79,58,29.88,29.85,9,1,10,0.00
2013-3-27,55.9,41.3,31.6,41.5,34.7,28.8,92,79,47,29.91,29.81,9,0,15,0.04
2013-3-28,56.8,44.0,35.8,41.7,37.2,32.5,92,79,46,30.04,29.90,8,0,9,0.10
2013-3-29,61.2,46.8,36.7,43.2,37.9,32.2,91,73,45,30.12,30.04,9,0,10,0.00
2013-3-30,69.1,48.7,29.1,44.2,35.9,25.5,89,65,35,30.14,29.97,12,1,13,0.00
2013-3-31,64.6,49.0,33.6,43.9,37.5,29.8,89,67,39,29.97,29.81,12,1,16,0.00